Metar Aviation Weather Data FACT

17°C Temp
10°C Dewpoint
% Humidity
Temperature
29 KM/H
18 MPH
16 KTS
150°
South South
East

Wind Speed
Partly Cloudy
Conditions
Pressure 1021.92 (hPa) - 30.18 (in)
Visibility 6.2 (mi) - 10.0 (km)

Current Conditions
FACT
Metar :FACT 220200Z 15016KT 9999 FEW035 17/10 Q1022 NOSIG
Mon 22nd April 04:00 am

  Metar Aviation API Data Provided by https://www.checkwx.com/ PHP scripts by weather34.com ©2019